עמוד ראשי
METAR-TAF:

METAR-TAF

שדות תעופה :

אטול מידוויי, ארצות הברית

קו רוחב: 28-13N, קו אורך: 177-22W, גובה: 4מטר

תצפית מזג אוויר נוכחית

הדו"ח נערך לפני 34דקות, בשעה 12:56 UTC
רוח 17קשר מכיוון מזרח
טמפרטורת 19 צלסיוס
לחות 68%
לחץ 1025 hPa
ראות: 16.1קילומטר
מעונן בגובה 3600רגל

METAR: PMDY 171256Z AUTO 08017KT 10SM OVC036 19/13 A3028 RMK AO2 SLP253 T01940133

זמן: 03:30 (13:30 UTC)

תחזית

הדו"ח נערך לפני 1 שעות ו 50דקות, בשעה 11:40 UTC
תחזית בתוקף מ 17 ב 12 UTC עד 18 ב 12 UTC
רוח 14קשר מכיוון מזרח/צפון-מזרח
ראות: 10קילומטר
עננים פזורים בגובה 2000רגל
מעונן בגובה 3500רגל

TAF: PMDY 171140Z 1712/1812 07014KT P6SM SCT020 OVC035

תצפיות ותחזיות מזג אוויר לגבי יותר מ- 4,000 שדות תעופה ברחבי העולם. דוחות METAR ו- TAF.

התחנות הזמינות מסומנות בנקודות צהובות ואדומות על גבי המפה.

העבר את העכבר לנקודה הצבעונית על מנת לראות את שם התחנה.

לאחר מכן, לחץ כדי לראות את תוכן ואת תחזיות מזג האוויר.

כדי לשנות את המפה: לחץ על הכפתורים הירוקים עם הפלוס השחור כדי להתקרב; על הכפתור הירוק עם המקף כדי להתרחק; או בחיצים הירוקים למפות סמוכות.


METAR-TAF: